createdAt,value
2023-05-21T00:00:45.176Z,42.60
2023-05-21T00:03:16.126Z,42.30
2023-05-21T00:05:44.258Z,42.20
2023-05-21T00:08:12.026Z,42.10
2023-05-21T00:10:39.750Z,41.90
2023-05-21T00:13:08.960Z,41.80
2023-05-21T00:15:36.956Z,41.70
2023-05-21T00:18:05.107Z,41.50
2023-05-21T00:20:34.197Z,41.10
2023-05-21T00:23:03.876Z,41.10
2023-05-21T00:25:31.643Z,40.90
2023-05-21T00:27:59.366Z,40.80
2023-05-21T00:30:27.089Z,40.70
2023-05-21T00:32:54.860Z,40.50
2023-05-21T00:35:22.702Z,40.40
2023-05-21T00:37:51.973Z,40.20
2023-05-21T00:40:19.722Z,39.80
2023-05-21T00:42:47.848Z,39.90
2023-05-21T00:45:15.808Z,39.90
2023-05-21T00:47:43.866Z,39.80
2023-05-21T00:50:12.187Z,39.60
2023-05-21T00:52:42.524Z,39.40
2023-05-21T00:55:11.985Z,39.00
2023-05-21T00:57:39.762Z,38.90
2023-05-21T01:00:08.838Z,39.10
2023-05-21T01:02:37.058Z,38.80
2023-05-21T01:05:05.878Z,38.70
2023-05-21T01:07:35.470Z,38.40
2023-05-21T01:10:04.688Z,38.20
2023-05-21T01:12:33.993Z,38.20
2023-05-21T01:15:01.784Z,38.10
2023-05-21T01:17:29.930Z,38.10
2023-05-21T01:19:58.415Z,38.00
2023-05-21T01:22:26.474Z,37.90
2023-05-21T01:24:56.268Z,37.80
2023-05-21T01:27:24.047Z,37.50
2023-05-21T01:29:51.763Z,37.50
2023-05-21T01:32:23.206Z,37.40
2023-05-21T01:34:54.946Z,37.30
2023-05-21T01:37:23.887Z,37.20
2023-05-21T01:39:53.376Z,37.30
2023-05-21T01:42:22.416Z,37.00
2023-05-21T01:44:50.423Z,36.90
2023-05-21T01:47:18.172Z,36.90
2023-05-21T01:49:45.870Z,36.60
2023-05-21T01:52:13.634Z,36.60
2023-05-21T01:54:41.374Z,36.60
2023-05-21T01:57:09.122Z,36.50
2023-05-21T01:59:38.908Z,36.40
2023-05-21T02:02:06.970Z,36.20
2023-05-21T02:04:34.750Z,36.20
2023-05-21T02:07:02.742Z,36.20
2023-05-21T02:09:30.486Z,36.10
2023-05-21T02:11:58.297Z,36.00
2023-05-21T02:14:26.254Z,36.10
2023-05-21T02:16:55.370Z,36.00
2023-05-21T02:19:23.264Z,35.80
2023-05-21T02:21:51.085Z,36.00
2023-05-21T02:24:18.785Z,35.80
2023-05-21T02:26:48.454Z,35.90
2023-05-21T02:29:16.252Z,36.50
2023-05-21T02:31:43.993Z,35.80
2023-05-21T02:34:13.540Z,35.80
2023-05-21T02:36:42.835Z,35.80
2023-05-21T02:39:10.579Z,35.60
2023-05-21T02:41:38.673Z,35.70
2023-05-21T02:44:06.446Z,35.70
2023-05-21T02:46:34.200Z,35.60
2023-05-21T02:49:02.219Z,35.60
2023-05-21T02:51:31.533Z,35.60
2023-05-21T02:53:59.438Z,35.60
2023-05-21T02:56:27.535Z,35.50
2023-05-21T02:58:55.489Z,35.50
2023-05-21T03:01:23.464Z,35.60
2023-05-21T03:03:51.363Z,35.60
2023-05-21T03:06:19.204Z,35.60
2023-05-21T03:08:48.372Z,35.50
2023-05-21T03:11:16.175Z,35.50
2023-05-21T03:13:43.975Z,35.40
2023-05-21T03:16:12.326Z,35.50
2023-05-21T03:18:40.784Z,35.30
2023-05-21T03:21:08.569Z,35.50
2023-05-21T03:23:36.339Z,35.40
2023-05-21T03:26:05.664Z,35.50
2023-05-21T03:28:33.428Z,35.60
2023-05-21T03:31:02.428Z,35.50
2023-05-21T03:33:36.233Z,35.40
2023-05-21T03:36:15.541Z,35.50
2023-05-21T03:38:43.904Z,35.60
2023-05-21T03:41:14.136Z,35.60
2023-05-21T03:43:45.056Z,35.60
2023-05-21T03:46:12.874Z,35.50
2023-05-21T03:48:46.641Z,35.50
2023-05-21T03:51:18.003Z,35.60
2023-05-21T03:53:45.849Z,35.60
2023-05-21T03:56:15.064Z,35.70
2023-05-21T03:58:43.146Z,35.70
2023-05-21T04:01:10.923Z,35.60
2023-05-21T04:03:40.801Z,35.60
2023-05-21T04:06:10.248Z,35.60
2023-05-21T04:08:39.625Z,35.60
2023-05-21T04:11:07.424Z,35.70
2023-05-21T04:13:37.754Z,35.70
2023-05-21T04:16:08.827Z,35.80
2023-05-21T04:18:37.043Z,35.90
2023-05-21T04:21:05.907Z,35.70
2023-05-21T04:23:33.645Z,35.80
2023-05-21T04:26:13.608Z,35.80
2023-05-21T04:28:45.800Z,35.80
2023-05-21T04:31:15.676Z,36.40
2023-05-21T04:33:45.862Z,35.90
2023-05-21T04:36:13.796Z,35.80
2023-05-21T04:38:41.842Z,36.00
2023-05-21T04:41:12.117Z,35.90
2023-05-21T04:43:43.981Z,36.00
2023-05-21T04:46:14.922Z,36.00
2023-05-21T04:48:42.712Z,36.10
2023-05-21T04:51:10.508Z,36.10
2023-05-21T04:53:38.808Z,36.10
2023-05-21T04:56:07.284Z,36.10
2023-05-21T04:58:35.183Z,36.10
2023-05-21T05:01:04.125Z,36.10
2023-05-21T05:03:33.306Z,36.10
2023-05-21T05:06:04.222Z,36.20
2023-05-21T05:08:32.015Z,36.20
2023-05-21T05:10:59.820Z,36.30
2023-05-21T05:13:27.611Z,36.20
2023-05-21T05:15:55.376Z,36.10
2023-05-21T05:18:23.195Z,36.30
2023-05-21T05:20:52.497Z,36.20
2023-05-21T05:23:20.319Z,36.30
2023-05-21T05:25:48.195Z,36.40
2023-05-21T05:28:15.920Z,36.40
2023-05-21T05:30:43.700Z,36.50
2023-05-21T05:33:19.038Z,36.40
2023-05-21T05:35:47.805Z,36.50
2023-05-21T05:38:17.083Z,36.50
2023-05-21T05:40:45.007Z,36.60
2023-05-21T05:43:12.808Z,36.50
2023-05-21T05:45:40.624Z,36.50
2023-05-21T05:48:13.398Z,36.60
2023-05-21T05:50:41.544Z,36.60
2023-05-21T05:53:13.112Z,36.60
2023-05-21T05:55:42.253Z,36.60
2023-05-21T05:58:10.035Z,36.80
2023-05-21T06:00:50.203Z,36.80
2023-05-21T06:03:18.884Z,36.80
2023-05-21T06:05:47.060Z,36.80
2023-05-21T06:08:14.940Z,36.80
2023-05-21T06:10:44.307Z,37.00
2023-05-21T06:13:12.060Z,37.00
2023-05-21T06:15:43.110Z,37.00
2023-05-21T06:18:11.408Z,37.00
2023-05-21T06:20:39.374Z,37.00
2023-05-21T06:23:08.759Z,37.10
2023-05-21T06:25:36.727Z,37.10
2023-05-21T06:28:06.764Z,37.10
2023-05-21T06:30:36.839Z,37.20
2023-05-21T06:33:04.841Z,37.30
2023-05-21T06:35:34.855Z,37.20
2023-05-21T06:38:02.721Z,37.30
2023-05-21T06:40:30.530Z,37.20
2023-05-21T06:43:00.453Z,37.30
2023-05-21T06:45:41.492Z,37.50
2023-05-21T06:48:22.740Z,37.50
2023-05-21T06:50:50.620Z,37.50
2023-05-21T06:53:18.434Z,37.50
2023-05-21T06:55:46.832Z,37.50
2023-05-21T06:58:19.020Z,37.60
2023-05-21T07:00:49.482Z,37.60
2023-05-21T07:03:18.221Z,37.70
2023-05-21T07:05:47.701Z,37.70
2023-05-21T07:08:16.798Z,37.70
2023-05-21T07:10:44.975Z,37.80
2023-05-21T07:13:12.813Z,37.80
2023-05-21T07:15:40.537Z,37.80
2023-05-21T07:18:09.710Z,37.90
2023-05-21T07:20:37.536Z,38.00
2023-05-21T07:23:07.479Z,38.10
2023-05-21T07:25:35.450Z,38.30
2023-05-21T07:28:06.431Z,38.20
2023-05-21T07:30:34.556Z,38.20
2023-05-21T07:33:03.723Z,38.20
2023-05-21T07:35:32.959Z,38.20
2023-05-21T07:38:00.806Z,38.30
2023-05-21T07:40:28.635Z,38.30
2023-05-21T07:42:56.565Z,38.30
2023-05-21T07:45:27.405Z,38.40
2023-05-21T07:47:55.663Z,38.40
2023-05-21T07:50:23.584Z,38.40
2023-05-21T07:52:52.780Z,38.50
2023-05-21T07:55:21.925Z,39.00
2023-05-21T07:57:52.201Z,39.20
2023-05-21T08:00:25.029Z,39.30
2023-05-21T08:02:56.102Z,39.00
2023-05-21T08:05:25.545Z,38.70
2023-05-21T08:07:54.706Z,38.40
2023-05-21T08:10:23.342Z,37.70
2023-05-21T08:12:52.869Z,37.20
2023-05-21T08:15:22.342Z,36.50
2023-05-21T08:17:50.451Z,36.60
2023-05-21T08:20:20.366Z,35.70
2023-05-21T08:22:48.284Z,35.60
2023-05-21T08:25:17.338Z,35.40
2023-05-21T08:27:45.120Z,35.00
2023-05-21T08:30:13.339Z,35.10
2023-05-21T08:32:41.236Z,35.00
2023-05-21T08:35:09.883Z,35.00
2023-05-21T08:37:55.738Z,35.00
2023-05-21T08:40:35.397Z,35.10
2023-05-21T08:43:03.218Z,34.80
2023-05-21T08:45:41.499Z,34.90
2023-05-21T08:48:10.285Z,34.80
2023-05-21T08:50:38.111Z,34.80
2023-05-21T08:53:24.172Z,34.90
2023-05-21T08:55:58.589Z,35.00
2023-05-21T08:58:37.889Z,35.30
2023-05-21T09:01:06.390Z,35.50
2023-05-21T09:03:39.324Z,35.80
2023-05-21T09:06:09.181Z,36.50
2023-05-21T09:08:37.026Z,37.30
2023-05-21T09:11:10.074Z,36.80
2023-05-21T09:13:44.972Z,37.20
2023-05-21T09:16:20.209Z,37.30
2023-05-21T09:18:48.180Z,37.40
2023-05-21T09:21:29.229Z,37.30
2023-05-21T09:24:01.641Z,36.50
2023-05-21T09:26:31.211Z,36.80
2023-05-21T09:29:03.600Z,36.80
2023-05-21T09:31:32.757Z,36.50
2023-05-21T09:34:01.833Z,36.20
2023-05-21T09:36:34.579Z,36.40
2023-05-21T09:39:03.239Z,37.00
2023-05-21T09:41:36.755Z,36.40
2023-05-21T09:44:05.725Z,36.40
2023-05-21T09:46:39.361Z,36.60
2023-05-21T09:49:07.634Z,36.70
2023-05-21T09:51:35.419Z,36.80
2023-05-21T09:54:03.102Z,37.20
2023-05-21T09:56:32.127Z,37.00
2023-05-21T09:59:05.070Z,37.20
2023-05-21T10:01:33.657Z,37.20
2023-05-21T10:04:03.179Z,37.30
2023-05-21T10:06:32.106Z,37.40
2023-05-21T10:09:03.863Z,37.60
2023-05-21T10:11:33.274Z,37.60
2023-05-21T10:14:06.181Z,37.60
2023-05-21T10:16:34.497Z,37.50
2023-05-21T10:19:02.604Z,37.60
2023-05-21T10:21:31.015Z,38.10
2023-05-21T10:23:58.788Z,38.20
2023-05-21T10:26:26.539Z,38.00
2023-05-21T10:28:54.322Z,38.30
2023-05-21T10:31:23.398Z,38.50
2023-05-21T10:33:51.099Z,38.50
2023-05-21T10:36:19.120Z,39.50
2023-05-21T10:38:47.054Z,38.60
2023-05-21T10:41:14.789Z,39.00
2023-05-21T10:43:46.403Z,39.30
2023-05-21T10:46:22.584Z,39.20
2023-05-21T10:48:59.294Z,39.00
2023-05-21T10:51:28.926Z,39.10
2023-05-21T10:54:32.819Z,39.30
2023-05-21T10:57:03.636Z,39.70
2023-05-21T10:59:37.342Z,39.40
2023-05-21T11:02:05.268Z,40.00
2023-05-21T11:04:35.017Z,40.40
2023-05-21T11:07:02.755Z,40.50
2023-05-21T11:09:30.464Z,40.20
2023-05-21T11:11:58.837Z,40.00
2023-05-21T11:14:31.761Z,40.60
2023-05-21T11:16:59.926Z,40.20
2023-05-21T11:19:37.489Z,40.20
2023-05-21T11:22:21.286Z,40.00
2023-05-21T11:24:50.903Z,40.30
2023-05-21T11:27:35.012Z,40.60
2023-05-21T11:30:05.473Z,40.40
2023-05-21T11:32:33.265Z,40.10
2023-05-21T11:35:02.902Z,39.90
2023-05-21T11:37:34.683Z,39.90
2023-05-21T11:40:18.165Z,39.90
2023-05-21T11:42:49.589Z,40.00
2023-05-21T11:45:18.743Z,40.10
2023-05-21T11:47:46.939Z,40.10
2023-05-21T11:50:16.759Z,40.00
2023-05-21T11:52:45.101Z,40.20
2023-05-21T11:55:15.443Z,40.00
2023-05-21T11:57:44.485Z,40.00
2023-05-21T12:00:16.842Z,40.00
2023-05-21T12:02:48.798Z,40.10
2023-05-21T12:05:17.994Z,40.40
2023-05-21T12:07:48.768Z,40.40
2023-05-21T12:10:16.621Z,40.40
2023-05-21T12:12:54.797Z,40.40
2023-05-21T12:15:24.236Z,40.50
2023-05-21T12:17:52.845Z,40.70
2023-05-21T12:20:22.251Z,40.80
2023-05-21T12:22:50.083Z,40.80
2023-05-21T12:25:19.809Z,41.60
2023-05-21T12:27:47.695Z,41.00
2023-05-21T12:30:15.719Z,41.50
2023-05-21T12:32:44.653Z,42.00
2023-05-21T12:35:23.802Z,42.30
2023-05-21T12:37:52.152Z,43.00
2023-05-21T12:40:20.259Z,43.00
2023-05-21T12:42:48.009Z,43.30
2023-05-21T12:45:18.351Z,43.30
2023-05-21T12:47:49.719Z,43.90
2023-05-21T12:50:17.514Z,44.40
2023-05-21T12:52:46.625Z,44.20
2023-05-21T12:55:15.129Z,44.60
2023-05-21T12:57:43.848Z,44.30
2023-05-21T13:00:12.199Z,44.60
2023-05-21T13:02:40.623Z,44.80
2023-05-21T13:05:09.542Z,44.70
2023-05-21T13:07:38.348Z,44.70
2023-05-21T13:10:08.790Z,44.70
2023-05-21T13:12:36.698Z,44.40
2023-05-21T13:15:05.745Z,44.80
2023-05-21T13:17:33.577Z,45.40
2023-05-21T13:20:08.964Z,45.50
2023-05-21T13:22:39.008Z,45.40
2023-05-21T13:25:09.126Z,45.60
2023-05-21T13:27:36.859Z,45.70
2023-05-21T13:30:05.963Z,45.70
2023-05-21T13:32:33.862Z,46.20
2023-05-21T13:35:01.695Z,45.70
2023-05-21T13:37:30.890Z,46.40
2023-05-21T13:39:58.689Z,46.40
2023-05-21T13:42:27.749Z,45.90
2023-05-21T13:44:55.459Z,46.10
2023-05-21T13:47:23.285Z,46.60
2023-05-21T13:49:51.010Z,47.00
2023-05-21T13:52:19.312Z,46.50
2023-05-21T13:54:47.187Z,46.60
2023-05-21T13:57:15.429Z,46.80
2023-05-21T13:59:44.758Z,47.40
2023-05-21T14:02:12.597Z,47.50
2023-05-21T14:04:40.582Z,47.30
2023-05-21T14:07:08.415Z,46.90
2023-05-21T14:09:36.174Z,47.10
2023-05-21T14:12:06.356Z,46.90
2023-05-21T14:14:34.440Z,47.10
2023-05-21T14:17:03.506Z,47.70
2023-05-21T14:19:31.330Z,47.40
2023-05-21T14:21:59.833Z,46.90
2023-05-21T14:24:27.617Z,47.10
2023-05-21T14:26:55.319Z,46.70
2023-05-21T14:29:23.041Z,46.40
2023-05-21T14:31:50.897Z,46.60
2023-05-21T14:34:19.997Z,46.70
2023-05-21T14:36:47.728Z,47.00
2023-05-21T14:39:15.534Z,46.90
2023-05-21T14:41:43.258Z,46.90
2023-05-21T14:44:11.034Z,47.10
2023-05-21T14:46:39.894Z,47.30
2023-05-21T14:49:07.662Z,47.50
2023-05-21T14:51:36.714Z,47.30
2023-05-21T14:54:04.660Z,47.60
2023-05-21T14:56:32.410Z,47.50
2023-05-21T14:59:00.305Z,47.10
2023-05-21T15:01:28.156Z,47.60
2023-05-21T15:03:56.831Z,47.70
2023-05-21T15:06:24.836Z,47.40
2023-05-21T15:08:53.872Z,47.70
2023-05-21T15:11:21.592Z,47.40
2023-05-21T15:13:49.426Z,47.60
2023-05-21T15:16:18.868Z,47.40
2023-05-21T15:18:47.624Z,47.40
2023-05-21T15:21:15.371Z,47.30
2023-05-21T15:23:43.089Z,47.10
2023-05-21T15:26:12.134Z,47.00
2023-05-21T15:28:40.017Z,46.80
2023-05-21T15:31:07.775Z,46.90
2023-05-21T15:33:35.790Z,47.10
2023-05-21T15:36:03.789Z,47.30
2023-05-21T15:38:32.728Z,47.50
2023-05-21T15:41:00.502Z,47.50
2023-05-21T15:43:29.608Z,48.00
2023-05-21T15:45:57.313Z,47.90
2023-05-21T15:48:25.076Z,47.90
2023-05-21T15:50:52.834Z,47.90
2023-05-21T15:53:20.618Z,48.00
2023-05-21T15:55:48.682Z,48.00
2023-05-21T15:58:16.740Z,48.00
2023-05-21T16:00:45.984Z,48.10
2023-05-21T16:03:13.778Z,48.10
2023-05-21T16:05:41.650Z,48.00
2023-05-21T16:08:10.701Z,48.10
2023-05-21T16:10:39.807Z,48.10
2023-05-21T16:13:07.560Z,48.10
2023-05-21T16:15:35.579Z,48.20
2023-05-21T16:18:04.970Z,48.30
2023-05-21T16:20:33.336Z,48.30
2023-05-21T16:23:01.074Z,48.30
2023-05-21T16:25:28.856Z,48.30
2023-05-21T16:27:56.594Z,48.20
2023-05-21T16:30:24.410Z,48.20
2023-05-21T16:32:52.195Z,48.30
2023-05-21T16:35:21.493Z,48.30
2023-05-21T16:37:49.230Z,48.30
2023-05-21T16:40:17.068Z,48.40
2023-05-21T16:42:44.784Z,48.50
2023-05-21T16:45:19.356Z,48.60
2023-05-21T16:47:47.594Z,48.60
2023-05-21T16:50:15.497Z,48.50
2023-05-21T16:52:44.547Z,48.50
2023-05-21T16:55:12.272Z,48.60
2023-05-21T16:57:39.982Z,48.70
2023-05-21T17:00:08.894Z,48.80
2023-05-21T17:02:36.682Z,48.80
2023-05-21T17:05:04.868Z,48.70
2023-05-21T17:07:32.630Z,48.80
2023-05-21T17:10:01.691Z,48.90
2023-05-21T17:12:29.473Z,49.50
2023-05-21T17:14:57.279Z,48.90
2023-05-21T17:17:25.097Z,49.00
2023-05-21T17:19:52.932Z,49.00
2023-05-21T17:22:20.673Z,49.10
2023-05-21T17:24:48.457Z,49.10
2023-05-21T17:27:17.514Z,49.10
2023-05-21T17:29:45.330Z,49.20
2023-05-21T17:32:13.104Z,49.10
2023-05-21T17:34:40.864Z,49.20
2023-05-21T17:37:08.629Z,49.30
2023-05-21T17:39:36.355Z,49.20
2023-05-21T17:42:04.269Z,49.20
2023-05-21T17:44:33.351Z,49.30
2023-05-21T17:47:01.209Z,49.40
2023-05-21T17:49:28.982Z,49.40
2023-05-21T17:51:56.737Z,49.40
2023-05-21T17:54:24.463Z,49.40
2023-05-21T17:56:52.288Z,49.50
2023-05-21T17:59:21.147Z,49.70
2023-05-21T18:01:50.211Z,49.70
2023-05-21T18:04:17.979Z,49.80
2023-05-21T18:06:45.840Z,49.70
2023-05-21T18:09:15.087Z,49.80
2023-05-21T18:11:43.768Z,49.70
2023-05-21T18:14:11.563Z,49.90
2023-05-21T18:16:39.317Z,49.90
2023-05-21T18:19:08.392Z,49.90
2023-05-21T18:21:36.189Z,49.90
2023-05-21T18:24:04.082Z,49.90
2023-05-21T18:26:31.808Z,49.90
2023-05-21T18:28:59.592Z,50.00
2023-05-21T18:31:27.519Z,50.00
2023-05-21T18:33:55.297Z,50.10
2023-05-21T18:36:26.571Z,50.00
2023-05-21T18:38:54.293Z,50.20
2023-05-21T18:41:22.611Z,50.30
2023-05-21T18:43:50.450Z,50.30
2023-05-21T18:46:19.304Z,50.50
2023-05-21T18:48:48.525Z,50.50
2023-05-21T18:51:16.254Z,50.50
2023-05-21T18:53:45.377Z,50.50
2023-05-21T18:56:13.118Z,50.60
2023-05-21T18:58:40.856Z,50.70
2023-05-21T19:01:08.603Z,50.80
2023-05-21T19:03:36.359Z,50.90
2023-05-21T19:06:04.372Z,51.00
2023-05-21T19:08:32.075Z,51.00
2023-05-21T19:11:01.118Z,51.00
2023-05-21T19:13:29.381Z,51.00
2023-05-21T19:15:58.645Z,51.00
2023-05-21T19:18:30.254Z,51.00
2023-05-21T19:21:00.010Z,51.00
2023-05-21T19:23:28.266Z,51.10
2023-05-21T19:25:56.287Z,51.10
2023-05-21T19:28:25.347Z,51.20
2023-05-21T19:30:53.053Z,51.20
2023-05-21T19:33:20.914Z,51.20
2023-05-21T19:35:50.884Z,51.30
2023-05-21T19:38:18.642Z,51.30
2023-05-21T19:40:46.376Z,51.40
2023-05-21T19:43:14.087Z,51.50
2023-05-21T19:45:43.171Z,51.50
2023-05-21T19:48:11.008Z,51.60
2023-05-21T19:50:39.039Z,51.60
2023-05-21T19:53:07.421Z,51.60
2023-05-21T19:55:37.313Z,51.80
2023-05-21T19:58:05.069Z,51.80
2023-05-21T20:00:33.180Z,52.00
2023-05-21T20:03:02.245Z,52.00
2023-05-21T20:05:30.055Z,52.00
2023-05-21T20:07:58.361Z,52.70
2023-05-21T20:10:27.988Z,52.10
2023-05-21T20:12:55.921Z,52.20
2023-05-21T20:15:23.653Z,52.20
2023-05-21T20:17:51.384Z,52.30
2023-05-21T20:20:22.845Z,52.30
2023-05-21T20:22:50.606Z,52.50
2023-05-21T20:25:18.369Z,52.50
2023-05-21T20:27:46.373Z,52.60
2023-05-21T20:30:14.440Z,52.60
2023-05-21T20:32:42.335Z,52.60
2023-05-21T20:35:10.500Z,52.70
2023-05-21T20:37:39.708Z,52.80
2023-05-21T20:40:09.573Z,52.90
2023-05-21T20:42:37.909Z,53.00
2023-05-21T20:45:06.315Z,53.00
2023-05-21T20:47:34.243Z,53.00
2023-05-21T20:50:03.160Z,53.10
2023-05-21T20:52:31.048Z,53.10
2023-05-21T20:55:00.437Z,53.20
2023-05-21T20:57:28.319Z,53.30
2023-05-21T20:59:56.145Z,53.30
2023-05-21T21:02:24.014Z,54.00
2023-05-21T21:04:51.905Z,53.50
2023-05-21T21:07:20.103Z,53.60
2023-05-21T21:09:47.995Z,53.60
2023-05-21T21:14:47.670Z,53.80
2023-05-21T21:17:15.679Z,53.80
2023-05-21T21:19:43.461Z,53.90
2023-05-21T21:22:11.205Z,53.90
2023-05-21T21:24:39.014Z,54.00
2023-05-21T21:27:07.153Z,54.10
2023-05-21T21:29:36.383Z,54.10
2023-05-21T21:32:04.210Z,54.10
2023-05-21T21:34:31.985Z,54.20
2023-05-21T21:36:59.736Z,54.30
2023-05-21T21:39:27.553Z,54.20
2023-05-21T21:41:55.356Z,54.20
2023-05-21T21:44:23.079Z,54.30
2023-05-21T21:46:52.172Z,54.40
2023-05-21T21:49:19.924Z,54.40
2023-05-21T21:51:48.332Z,54.50
2023-05-21T21:54:16.206Z,54.50
2023-05-21T21:56:43.983Z,54.50
2023-05-21T21:59:11.845Z,54.50
2023-05-21T22:01:39.732Z,54.60
2023-05-21T22:04:08.976Z,54.60
2023-05-21T22:06:38.836Z,54.70
2023-05-21T22:09:06.619Z,54.80
2023-05-21T22:11:34.394Z,54.80
2023-05-21T22:14:02.717Z,54.80
2023-05-21T22:16:30.574Z,54.80
2023-05-21T22:18:58.933Z,54.80
2023-05-21T22:21:29.203Z,54.90
2023-05-21T22:23:56.941Z,54.90
2023-05-21T22:26:24.618Z,54.90
2023-05-21T22:28:52.357Z,54.90
2023-05-21T22:31:20.131Z,55.00
2023-05-21T22:33:48.138Z,54.90
2023-05-21T22:36:16.016Z,55.00
2023-05-21T22:38:45.122Z,55.00
2023-05-21T22:41:12.941Z,55.00
2023-05-21T22:43:40.817Z,55.10
2023-05-21T22:46:08.659Z,55.10
2023-05-21T22:48:37.264Z,55.20
2023-05-21T22:51:05.517Z,55.10
2023-05-21T22:53:34.207Z,55.10
2023-05-21T22:56:03.279Z,55.20
2023-05-21T22:58:31.026Z,55.30
2023-05-21T23:00:58.802Z,56.00
2023-05-21T23:03:26.718Z,55.30
2023-05-21T23:05:54.452Z,55.40
2023-05-21T23:08:22.258Z,55.50
2023-05-21T23:10:49.988Z,55.60
2023-05-21T23:13:19.116Z,55.60
2023-05-21T23:15:48.307Z,55.70
2023-05-21T23:18:16.502Z,55.70
2023-05-21T23:20:44.375Z,55.80
2023-05-21T23:23:12.151Z,55.80
2023-05-21T23:25:39.851Z,55.90
2023-05-21T23:28:07.633Z,55.90
2023-05-21T23:30:36.877Z,55.90
2023-05-21T23:33:04.785Z,56.00
2023-05-21T23:35:32.613Z,56.00
2023-05-21T23:38:00.337Z,56.10
2023-05-21T23:40:28.102Z,56.20
2023-05-21T23:42:55.798Z,56.10
2023-05-21T23:45:23.708Z,56.20
2023-05-21T23:47:53.180Z,56.20
2023-05-21T23:50:20.938Z,56.30
2023-05-21T23:52:48.677Z,56.50
2023-05-21T23:55:16.643Z,56.50
2023-05-21T23:57:44.467Z,56.50
